Terminal Aerodrome Forecast
Issued by NWS Paducah, KY

Home | Current Version | Previous Version | Text Only | Print | Product List | Glossary On
Versions: 1 2 3 4 5 6 7 8 9 10 11 12 13 14 15 16 17 18 19 20 21
000
FTUS43 KPAH 192320
TAFEVV
TAF
KEVV 192320Z 2000/2024 19010G19KT P6SM SCT045 BKN150
     FM200600 19010G18KT P6SM SCT030 BKN060
     FM201200 19012G21KT P6SM VCSH OVC030
     FM201800 19015G25KT P6SM BKN035=

USA.gov is the U.S. government's official web portal to all federal, state and local government web resources and services.